createdAt,value
2023-01-27T00:01:51.687Z,24.30
2023-01-27T00:04:20.507Z,25.23
2023-01-27T00:06:50.844Z,26.63
2023-01-27T00:09:19.750Z,27.23
2023-01-27T00:12:06.253Z,25.87
2023-01-27T00:14:35.036Z,29.57
2023-01-27T00:17:03.760Z,26.10
2023-01-27T00:19:32.514Z,25.43
2023-01-27T00:22:19.860Z,27.23
2023-01-27T00:24:48.634Z,25.97
2023-01-27T00:27:17.326Z,25.43
2023-01-27T00:29:46.185Z,23.83
2023-01-27T00:32:32.376Z,23.50
2023-01-27T00:35:01.252Z,24.47
2023-01-27T00:37:31.351Z,26.20
2023-01-27T00:40:00.204Z,24.73
2023-01-27T00:42:29.029Z,26.83
2023-01-27T00:45:14.951Z,25.37
2023-01-27T00:47:43.673Z,27.63
2023-01-27T00:50:13.822Z,30.77
2023-01-27T00:52:44.554Z,29.17
2023-01-27T00:55:16.069Z,26.37
2023-01-27T00:57:44.836Z,25.30
2023-01-27T01:00:15.881Z,30.43
2023-01-27T01:02:44.874Z,30.87
2023-01-27T01:05:13.667Z,30.60
2023-01-27T01:07:43.836Z,32.53
2023-01-27T01:10:13.302Z,28.43
2023-01-27T01:12:42.292Z,32.07
2023-01-27T01:15:12.170Z,33.33
2023-01-27T01:17:40.896Z,34.27
2023-01-27T01:20:11.854Z,35.13
2023-01-27T01:22:40.989Z,31.63
2023-01-27T01:25:11.733Z,34.60
2023-01-27T01:27:40.498Z,35.50
2023-01-27T01:30:11.923Z,31.93
2023-01-27T01:32:40.837Z,33.53
2023-01-27T01:35:10.585Z,35.93
2023-01-27T01:37:39.457Z,37.50
2023-01-27T01:40:13.063Z,34.97
2023-01-27T01:42:58.563Z,34.50
2023-01-27T01:45:49.509Z,34.27
2023-01-27T01:48:24.970Z,33.57
2023-01-27T01:51:00.156Z,34.43
2023-01-27T01:53:34.973Z,37.57
2023-01-27T01:56:13.149Z,35.20
2023-01-27T02:01:20.255Z,35.53
2023-01-27T02:03:55.068Z,35.17
2023-01-27T02:06:24.450Z,35.13
2023-01-27T02:08:53.740Z,37.10
2023-01-27T02:11:24.140Z,34.23
2023-01-27T02:13:53.666Z,31.23
2023-01-27T02:16:22.703Z,34.20
2023-01-27T02:18:51.448Z,32.47
2023-01-27T02:21:20.592Z,30.50
2023-01-27T02:23:58.596Z,26.77
2023-01-27T02:26:33.712Z,27.70
2023-01-27T02:29:07.908Z,28.83
2023-01-27T02:31:36.949Z,27.17
2023-01-27T02:34:10.476Z,25.93
2023-01-27T02:36:46.367Z,27.10
2023-01-27T02:39:18.241Z,27.03
2023-01-27T02:41:54.083Z,27.83
2023-01-27T02:44:23.230Z,28.27
2023-01-27T02:46:52.367Z,25.53
2023-01-27T02:49:21.154Z,25.17
2023-01-27T02:51:49.903Z,25.70
2023-01-27T02:54:18.685Z,23.50
2023-01-27T02:56:48.852Z,24.07
2023-01-27T02:59:17.598Z,24.63
2023-01-27T03:01:46.331Z,26.07
2023-01-27T03:04:15.949Z,27.63
2023-01-27T03:06:44.740Z,26.07
2023-01-27T03:09:13.551Z,29.93
2023-01-27T03:11:59.804Z,28.17
2023-01-27T03:14:47.268Z,27.50
2023-01-27T03:17:33.790Z,28.10
2023-01-27T03:20:02.835Z,28.87
2023-01-27T03:22:31.724Z,28.93
2023-01-27T03:25:00.524Z,28.80
2023-01-27T03:27:29.257Z,29.57
2023-01-27T03:29:59.511Z,29.77
2023-01-27T03:32:31.840Z,32.33
2023-01-27T03:35:01.576Z,31.20
2023-01-27T03:37:49.227Z,31.67
2023-01-27T03:40:36.299Z,31.83
2023-01-27T03:43:22.778Z,31.90
2023-01-27T03:46:10.755Z,31.37
2023-01-27T03:48:39.990Z,28.00
2023-01-27T03:51:11.054Z,24.50
2023-01-27T03:53:40.407Z,24.70
2023-01-27T03:56:09.518Z,23.27
2023-01-27T03:58:39.109Z,27.07
2023-01-27T04:01:15.087Z,25.37
2023-01-27T04:04:01.260Z,25.37
2023-01-27T04:06:50.216Z,23.40
2023-01-27T04:09:23.537Z,25.27
2023-01-27T04:12:00.038Z,22.80
2023-01-27T04:14:32.748Z,22.67
2023-01-27T04:17:05.959Z,20.13
2023-01-27T04:19:35.517Z,22.20
2023-01-27T04:22:04.513Z,20.47
2023-01-27T04:24:33.808Z,21.27
2023-01-27T04:27:04.967Z,18.77
2023-01-27T04:29:36.304Z,22.73
2023-01-27T04:32:08.415Z,21.87
2023-01-27T04:34:37.647Z,23.17
2023-01-27T04:37:08.071Z,17.43
2023-01-27T04:39:37.871Z,17.47
2023-01-27T04:42:07.082Z,23.70
2023-01-27T04:44:35.855Z,20.33
2023-01-27T04:47:06.142Z,22.33
2023-01-27T04:49:35.083Z,35.97
2023-01-27T04:52:03.974Z,18.90
2023-01-27T04:54:33.025Z,19.97
2023-01-27T04:57:04.318Z,16.53
2023-01-27T04:59:33.238Z,27.67
2023-01-27T05:02:02.035Z,23.57
2023-01-27T05:04:32.521Z,21.10
2023-01-27T05:07:01.319Z,19.40
2023-01-27T05:09:30.241Z,17.40
2023-01-27T05:11:58.938Z,18.67
2023-01-27T05:14:28.035Z,17.00
2023-01-27T05:16:56.869Z,21.80
2023-01-27T05:19:25.775Z,17.37
2023-01-27T05:21:55.940Z,18.53
2023-01-27T05:24:24.843Z,21.03
2023-01-27T05:26:54.247Z,18.10
2023-01-27T05:29:23.149Z,17.57
2023-01-27T05:31:51.938Z,17.63
2023-01-27T05:34:20.722Z,16.93
2023-01-27T05:36:49.503Z,23.40
2023-01-27T05:39:19.888Z,21.03
2023-01-27T05:41:49.197Z,17.63
2023-01-27T05:44:18.280Z,15.50
2023-01-27T05:46:47.558Z,19.57
2023-01-27T05:49:16.392Z,20.57
2023-01-27T05:51:45.363Z,16.57
2023-01-27T05:54:14.068Z,18.40
2023-01-27T05:56:44.266Z,16.17
2023-01-27T05:59:13.577Z,18.70
2023-01-27T06:01:42.307Z,19.43
2023-01-27T06:04:12.297Z,20.47
2023-01-27T06:06:41.006Z,20.03
2023-01-27T06:09:11.535Z,19.60
2023-01-27T06:11:40.329Z,19.37
2023-01-27T06:14:10.578Z,16.70
2023-01-27T06:16:39.480Z,16.77
2023-01-27T06:19:08.258Z,18.60
2023-01-27T06:21:37.015Z,16.07
2023-01-27T06:24:06.959Z,16.33
2023-01-27T06:26:35.769Z,15.57
2023-01-27T06:29:04.601Z,16.43
2023-01-27T06:31:34.926Z,18.53
2023-01-27T06:34:03.771Z,19.53
2023-01-27T06:36:32.752Z,18.53
2023-01-27T06:39:01.590Z,20.57
2023-01-27T06:41:30.437Z,20.07
2023-01-27T06:43:59.180Z,20.20
2023-01-27T06:46:28.285Z,18.07
2023-01-27T06:48:58.645Z,19.17
2023-01-27T06:51:27.501Z,20.30
2023-01-27T06:53:56.269Z,19.40
2023-01-27T06:56:25.614Z,18.67
2023-01-27T06:58:54.368Z,21.20
2023-01-27T07:01:23.733Z,22.03
2023-01-27T07:03:52.517Z,24.67
2023-01-27T07:06:23.006Z,22.03
2023-01-27T07:08:53.624Z,22.93
2023-01-27T07:11:25.527Z,23.23
2023-01-27T07:13:54.303Z,22.27
2023-01-27T07:16:23.682Z,21.33
2023-01-27T07:18:52.463Z,24.87
2023-01-27T07:21:22.664Z,23.23
2023-01-27T07:23:51.440Z,26.17
2023-01-27T07:26:25.174Z,25.30
2023-01-27T07:28:54.664Z,23.23
2023-01-27T07:31:23.893Z,25.23
2023-01-27T07:33:54.827Z,22.40
2023-01-27T07:36:25.832Z,20.60
2023-01-27T07:38:54.667Z,19.93
2023-01-27T07:41:26.359Z,22.73
2023-01-27T07:43:55.204Z,23.20
2023-01-27T07:46:36.437Z,24.87
2023-01-27T07:49:05.235Z,22.20
2023-01-27T07:51:35.434Z,26.13
2023-01-27T07:54:05.691Z,25.17
2023-01-27T07:56:36.382Z,21.10
2023-01-27T07:59:06.045Z,22.87
2023-01-27T08:01:35.084Z,20.60
2023-01-27T08:04:03.946Z,23.63
2023-01-27T08:06:34.318Z,20.67
2023-01-27T08:09:03.346Z,23.07
2023-01-27T08:11:32.225Z,21.83
2023-01-27T08:14:01.064Z,20.67
2023-01-27T08:16:30.570Z,22.00
2023-01-27T08:18:59.557Z,24.47
2023-01-27T08:21:32.896Z,21.27
2023-01-27T08:24:03.245Z,20.00
2023-01-27T08:26:32.025Z,22.77
2023-01-27T08:29:00.842Z,20.97
2023-01-27T08:31:30.041Z,22.27
2023-01-27T08:33:58.969Z,23.33
2023-01-27T08:36:28.136Z,20.37
2023-01-27T08:38:58.023Z,23.47
2023-01-27T08:41:29.537Z,24.17
2023-01-27T08:43:58.301Z,21.20
2023-01-27T08:46:27.208Z,21.63
2023-01-27T08:48:56.060Z,23.13
2023-01-27T08:51:25.104Z,22.97
2023-01-27T08:53:54.043Z,24.00
2023-01-27T08:56:23.352Z,21.33
2023-01-27T08:58:56.752Z,22.67
2023-01-27T09:01:26.065Z,23.47
2023-01-27T09:03:55.001Z,21.37
2023-01-27T09:06:23.935Z,19.80
2023-01-27T09:09:11.497Z,20.60
2023-01-27T09:11:44.038Z,23.83
2023-01-27T09:14:14.562Z,23.77
2023-01-27T09:16:43.482Z,24.47
2023-01-27T09:19:12.400Z,23.87
2023-01-27T09:21:41.578Z,22.77
2023-01-27T09:24:11.426Z,25.27
2023-01-27T09:26:40.321Z,22.80
2023-01-27T09:29:09.203Z,40.53
2023-01-27T09:31:39.568Z,30.83
2023-01-27T09:34:08.622Z,33.53
2023-01-27T09:36:44.309Z,26.67
2023-01-27T09:39:16.420Z,26.83
2023-01-27T09:42:34.279Z,23.43
2023-01-27T09:45:36.616Z,22.80
2023-01-27T09:48:30.755Z,24.50
2023-01-27T09:51:10.800Z,22.77
2023-01-27T09:54:19.792Z,29.77
2023-01-27T09:57:01.703Z,30.97
2023-01-27T09:59:54.030Z,23.73
2023-01-27T10:02:47.028Z,23.97
2023-01-27T10:05:44.209Z,24.13
2023-01-27T10:08:55.503Z,20.30
2023-01-27T10:11:37.705Z,23.17
2023-01-27T10:14:24.056Z,21.67
2023-01-27T10:17:12.548Z,26.70
2023-01-27T10:20:00.225Z,22.60
2023-01-27T10:22:48.145Z,28.87
2023-01-27T10:25:37.288Z,22.53
2023-01-27T10:28:14.504Z,22.63
2023-01-27T10:30:57.351Z,24.23
2023-01-27T10:33:46.001Z,20.33
2023-01-27T10:36:28.149Z,21.13
2023-01-27T10:39:17.030Z,23.10
2023-01-27T10:41:59.275Z,24.43
2023-01-27T10:44:48.409Z,26.60
2023-01-27T10:47:34.833Z,24.93
2023-01-27T10:50:09.069Z,24.97
2023-01-27T10:52:42.768Z,24.17
2023-01-27T10:55:21.965Z,29.00
2023-01-27T10:58:00.394Z,28.03
2023-01-27T11:01:17.731Z,26.57
2023-01-27T11:03:38.464Z,26.70
2023-01-27T11:06:15.197Z,27.03
2023-01-27T11:08:52.664Z,25.23
2023-01-27T11:11:44.320Z,25.50
2023-01-27T11:14:26.514Z,24.17
2023-01-27T11:17:04.351Z,27.90
2023-01-27T11:19:45.060Z,27.33
2023-01-27T11:22:25.121Z,25.17
2023-01-27T11:25:04.111Z,25.63
2023-01-27T11:28:02.031Z,27.10
2023-01-27T11:30:40.704Z,30.77
2023-01-27T11:33:20.494Z,28.23
2023-01-27T11:35:50.668Z,27.77
2023-01-27T11:38:23.957Z,27.87
2023-01-27T11:40:55.068Z,28.63
2023-01-27T11:43:28.058Z,29.03
2023-01-27T11:46:04.015Z,30.47
2023-01-27T11:48:41.405Z,30.93
2023-01-27T11:51:21.604Z,29.37
2023-01-27T11:54:01.272Z,35.03
2023-01-27T11:56:31.613Z,29.53
2023-01-27T11:59:09.730Z,31.00
2023-01-27T12:01:50.523Z,34.30
2023-01-27T12:04:45.473Z,31.40
2023-01-27T12:07:23.494Z,34.17
2023-01-27T12:09:52.353Z,32.60
2023-01-27T12:12:27.325Z,33.07
2023-01-27T12:14:59.859Z,34.70
2023-01-27T12:17:40.204Z,34.90
2023-01-27T12:20:27.971Z,36.50
2023-01-27T12:23:01.494Z,36.03
2023-01-27T12:25:42.410Z,36.00
2023-01-27T12:28:27.323Z,36.40
2023-01-27T12:31:06.645Z,36.47
2023-01-27T12:33:39.508Z,33.20
2023-01-27T12:36:17.210Z,31.50
2023-01-27T12:38:54.694Z,34.43
2023-01-27T12:41:27.920Z,38.13
2023-01-27T12:44:00.390Z,32.63
2023-01-27T12:46:33.717Z,34.07
2023-01-27T12:49:10.730Z,32.23
2023-01-27T12:51:45.083Z,31.80
2023-01-27T12:54:22.006Z,38.07
2023-01-27T12:56:52.539Z,34.67
2023-01-27T12:59:26.115Z,33.17
2023-01-27T13:02:18.771Z,33.30
2023-01-27T13:04:54.415Z,35.47
2023-01-27T13:07:29.851Z,35.13
2023-01-27T13:10:03.884Z,35.70
2023-01-27T13:12:49.102Z,37.60
2023-01-27T13:15:20.707Z,35.37
2023-01-27T13:17:53.420Z,35.60
2023-01-27T13:20:27.421Z,36.30
2023-01-27T13:23:02.684Z,37.40
2023-01-27T13:25:41.361Z,36.20
2023-01-27T13:28:18.705Z,37.40
2023-01-27T13:30:54.283Z,33.33
2023-01-27T13:33:46.297Z,34.37
2023-01-27T13:36:28.997Z,35.37
2023-01-27T13:39:12.593Z,32.70
2023-01-27T13:41:50.032Z,31.43
2023-01-27T13:44:29.146Z,35.60
2023-01-27T13:47:05.711Z,34.23
2023-01-27T13:49:43.898Z,34.73
2023-01-27T13:52:13.992Z,37.57
2023-01-27T13:54:43.134Z,40.27
2023-01-27T13:57:45.087Z,34.10
2023-01-27T14:00:24.099Z,36.47
2023-01-27T14:03:31.345Z,39.47
2023-01-27T14:06:31.435Z,36.77
2023-01-27T14:09:31.961Z,34.47
2023-01-27T14:12:10.628Z,35.63
2023-01-27T14:14:58.667Z,38.23
2023-01-27T14:17:41.155Z,39.73
2023-01-27T14:20:42.208Z,41.87
2023-01-27T14:23:44.970Z,44.00
2023-01-27T14:26:44.246Z,40.50
2023-01-27T14:29:30.067Z,37.43
2023-01-27T14:32:14.747Z,36.10
2023-01-27T14:35:18.459Z,40.77
2023-01-27T14:37:57.288Z,39.17
2023-01-27T14:40:33.904Z,39.53
2023-01-27T14:43:30.540Z,41.90
2023-01-27T14:46:16.016Z,40.67
2023-01-27T14:49:07.907Z,40.70
2023-01-27T14:51:46.394Z,41.97
2023-01-27T14:54:55.050Z,39.87
2023-01-27T14:57:39.148Z,41.00
2023-01-27T15:00:34.692Z,40.33
2023-01-27T15:03:45.732Z,41.13
2023-01-27T15:06:29.727Z,39.10
2023-01-27T15:09:10.244Z,37.50
2023-01-27T15:12:20.930Z,39.57
2023-01-27T15:15:37.749Z,39.57
2023-01-27T15:18:34.314Z,38.33
2023-01-27T15:21:31.247Z,36.30
2023-01-27T15:24:40.212Z,38.53
2023-01-27T15:27:11.058Z,35.43
2023-01-27T15:29:40.442Z,32.73
2023-01-27T15:32:28.233Z,37.77
2023-01-27T15:35:36.655Z,35.03
2023-01-27T15:38:33.822Z,39.97
2023-01-27T15:41:08.756Z,36.20
2023-01-27T15:43:44.257Z,35.23
2023-01-27T15:46:33.801Z,31.63
2023-01-27T15:49:10.046Z,33.10
2023-01-27T15:51:39.096Z,33.63
2023-01-27T15:54:19.009Z,35.87
2023-01-27T15:56:53.168Z,30.20
2023-01-27T15:59:26.936Z,30.53
2023-01-27T16:02:14.318Z,35.57
2023-01-27T16:04:45.704Z,34.37
2023-01-27T16:07:28.644Z,29.20
2023-01-27T16:10:01.409Z,32.37
2023-01-27T16:12:39.141Z,29.57
2023-01-27T16:15:37.000Z,33.30
2023-01-27T16:18:41.972Z,29.17
2023-01-27T16:21:44.557Z,32.60
2023-01-27T16:24:28.180Z,32.03
2023-01-27T16:27:07.910Z,33.13
2023-01-27T16:29:46.380Z,29.37
2023-01-27T16:32:20.565Z,33.00
2023-01-27T16:34:54.664Z,33.37
2023-01-27T16:37:29.398Z,36.77
2023-01-27T16:40:06.718Z,30.47
2023-01-27T16:42:39.014Z,31.43
2023-01-27T16:45:22.419Z,32.90
2023-01-27T16:47:58.046Z,31.83
2023-01-27T16:50:36.504Z,31.87
2023-01-27T16:53:14.532Z,32.53
2023-01-27T16:55:43.674Z,33.47
2023-01-27T16:58:25.814Z,31.67
2023-01-27T17:00:58.410Z,30.60
2023-01-27T17:03:37.545Z,32.03
2023-01-27T17:06:10.547Z,33.33
2023-01-27T17:08:47.711Z,43.13
2023-01-27T17:11:25.336Z,32.37
2023-01-27T17:14:01.289Z,31.10
2023-01-27T17:16:36.576Z,32.40
2023-01-27T17:19:11.886Z,32.90
2023-01-27T17:21:46.649Z,32.43
2023-01-27T17:24:25.671Z,35.37
2023-01-27T17:27:04.500Z,33.80
2023-01-27T17:29:38.283Z,31.23
2023-01-27T17:32:23.156Z,33.37
2023-01-27T17:34:55.074Z,35.03
2023-01-27T17:37:25.631Z,34.17
2023-01-27T17:39:59.090Z,36.97
2023-01-27T17:42:31.823Z,34.00
2023-01-27T17:45:25.234Z,35.80
2023-01-27T17:47:54.833Z,37.97
2023-01-27T17:50:31.544Z,35.83
2023-01-27T17:53:01.028Z,40.60
2023-01-27T17:55:32.305Z,36.60
2023-01-27T17:58:07.020Z,37.70
2023-01-27T18:00:40.286Z,41.23
2023-01-27T18:03:18.412Z,37.80
2023-01-27T18:05:50.612Z,40.13
2023-01-27T18:08:20.096Z,41.13
2023-01-27T18:10:51.164Z,40.80
2023-01-27T18:13:40.342Z,43.33
2023-01-27T18:16:16.710Z,42.40
2023-01-27T18:18:46.837Z,40.67
2023-01-27T18:21:20.404Z,39.53
2023-01-27T18:23:52.905Z,42.97
2023-01-27T18:26:27.881Z,43.07
2023-01-27T18:29:01.582Z,44.73
2023-01-27T18:31:34.495Z,42.30
2023-01-27T18:34:23.356Z,49.40
2023-01-27T18:36:57.181Z,46.87
2023-01-27T18:39:36.970Z,40.97
2023-01-27T18:42:16.143Z,52.97
2023-01-27T18:44:45.268Z,46.47
2023-01-27T18:47:33.301Z,41.20
2023-01-27T18:50:14.709Z,43.50
2023-01-27T18:52:43.851Z,40.30
2023-01-27T18:55:18.794Z,43.40
2023-01-27T18:57:51.059Z,48.07
2023-01-27T19:00:22.906Z,40.63
2023-01-27T19:02:56.392Z,41.73
2023-01-27T19:05:29.341Z,45.70
2023-01-27T19:07:58.871Z,46.40
2023-01-27T19:10:30.774Z,43.17
2023-01-27T19:13:03.972Z,45.73
2023-01-27T19:15:35.644Z,40.73
2023-01-27T19:18:16.170Z,50.93
2023-01-27T19:20:45.035Z,45.90
2023-01-27T19:23:16.716Z,43.57
2023-01-27T19:25:48.196Z,45.80
2023-01-27T19:28:24.841Z,45.47
2023-01-27T19:30:53.816Z,45.73
2023-01-27T19:33:26.823Z,45.10
2023-01-27T19:35:58.760Z,43.33
2023-01-27T19:38:30.921Z,44.47
2023-01-27T19:40:59.723Z,44.97
2023-01-27T19:43:29.983Z,44.00
2023-01-27T19:45:58.882Z,45.77
2023-01-27T19:48:27.697Z,46.43
2023-01-27T19:50:56.504Z,49.90
2023-01-27T19:53:25.268Z,42.00
2023-01-27T19:55:57.467Z,47.93
2023-01-27T19:58:29.895Z,41.10
2023-01-27T20:00:59.304Z,44.80
2023-01-27T20:03:28.188Z,49.50
2023-01-27T20:05:57.083Z,50.30
2023-01-27T20:08:25.879Z,52.10
2023-01-27T20:10:54.797Z,44.37
2023-01-27T20:13:23.548Z,43.07
2023-01-27T20:15:53.965Z,47.00
2023-01-27T20:18:24.014Z,52.93
2023-01-27T20:20:52.845Z,48.23
2023-01-27T20:23:21.639Z,48.37
2023-01-27T20:25:50.442Z,48.13
2023-01-27T20:28:19.193Z,46.13
2023-01-27T20:30:48.036Z,46.03
2023-01-27T20:33:18.367Z,46.40
2023-01-27T20:35:47.244Z,53.70
2023-01-27T20:38:16.032Z,50.77
2023-01-27T20:40:44.851Z,57.60
2023-01-27T20:43:17.274Z,49.40
2023-01-27T20:45:52.739Z,52.83
2023-01-27T20:48:22.889Z,56.07
2023-01-27T20:51:00.771Z,51.90
2023-01-27T20:53:33.163Z,52.27
2023-01-27T20:56:02.397Z,55.67
2023-01-27T20:58:32.404Z,66.20
2023-01-27T21:01:09.032Z,51.07
2023-01-27T21:03:40.506Z,55.03
2023-01-27T21:06:11.512Z,51.27
2023-01-27T21:08:42.672Z,52.07
2023-01-27T21:11:13.279Z,51.43
2023-01-27T21:13:42.066Z,61.13
2023-01-27T21:16:11.385Z,51.90
2023-01-27T21:18:42.182Z,51.53
2023-01-27T21:21:25.444Z,51.97
2023-01-27T21:23:54.743Z,54.07
2023-01-27T21:26:23.997Z,54.67
2023-01-27T21:28:53.426Z,55.87
2023-01-27T21:31:29.531Z,51.97
2023-01-27T21:34:01.609Z,55.00
2023-01-27T21:36:30.979Z,54.93
2023-01-27T21:39:01.701Z,58.57
2023-01-27T21:41:47.744Z,54.33
2023-01-27T21:44:36.959Z,51.90
2023-01-27T21:47:07.627Z,53.47
2023-01-27T21:49:53.680Z,53.53
2023-01-27T21:52:22.756Z,55.13
2023-01-27T21:54:51.618Z,52.50
2023-01-27T21:57:20.901Z,50.13
2023-01-27T21:59:49.649Z,55.77
2023-01-27T22:02:19.329Z,50.63
2023-01-27T22:04:49.578Z,51.70
2023-01-27T22:07:20.433Z,53.60
2023-01-27T22:09:49.317Z,48.70
2023-01-27T22:12:18.621Z,49.70
2023-01-27T22:14:47.384Z,45.13
2023-01-27T22:17:18.391Z,51.00
2023-01-27T22:19:49.163Z,51.17
2023-01-27T22:22:18.055Z,49.43
2023-01-27T22:24:46.839Z,51.30
2023-01-27T22:27:15.720Z,48.73
2023-01-27T22:29:44.521Z,54.47
2023-01-27T22:32:13.337Z,47.63
2023-01-27T22:34:43.665Z,43.73
2023-01-27T22:37:13.836Z,48.03
2023-01-27T22:39:43.317Z,47.77
2023-01-27T22:42:12.127Z,47.87
2023-01-27T22:44:40.943Z,47.10
2023-01-27T22:47:09.746Z,45.83
2023-01-27T22:49:38.532Z,44.50
2023-01-27T22:52:07.310Z,44.27
2023-01-27T22:54:37.964Z,46.00
2023-01-27T22:57:06.892Z,46.83
2023-01-27T22:59:35.745Z,41.77
2023-01-27T23:02:04.684Z,43.57
2023-01-27T23:04:33.676Z,44.37
2023-01-27T23:07:02.776Z,42.33
2023-01-27T23:09:32.833Z,44.63
2023-01-27T23:12:03.116Z,43.57
2023-01-27T23:14:31.875Z,40.87
2023-01-27T23:17:00.636Z,40.17
2023-01-27T23:19:30.130Z,37.27
2023-01-27T23:21:58.906Z,40.40
2023-01-27T23:24:27.702Z,42.80
2023-01-27T23:26:56.568Z,36.77
2023-01-27T23:29:29.250Z,40.37
2023-01-27T23:31:58.370Z,34.30
2023-01-27T23:34:27.450Z,36.23
2023-01-27T23:36:56.396Z,36.00
2023-01-27T23:39:25.496Z,36.40
2023-01-27T23:41:54.217Z,37.23
2023-01-27T23:44:23.023Z,32.03
2023-01-27T23:46:53.140Z,36.80
2023-01-27T23:49:22.284Z,34.80
2023-01-27T23:51:51.033Z,35.70
2023-01-27T23:54:19.989Z,34.97
2023-01-27T23:56:48.825Z,34.00
2023-01-27T23:59:17.612Z,34.40
